Golden Triangle Regional Air, Mississippi
Current Conditions -  °F | °C
As of 8:35 PM on Sunday 23 Nov 2014 (Local Time) from KGTR Reporting Station
Clear Clear  
Wind Chill: 61°   Ceiling: Unl
Heat Index: 61°   Visibility: 10mi
Dew Point: 55°   Wind: 13mph
Humidity: 82%   Direction: 180°S
Pressure: 29.57"   Gusts: NA
Location:  33.455°N, 88.5512°W
Report Text: KGTR 240235Z 18011KT 10SM CLR 16/13 A2957 RMK AO1
Loading
Personal Weather Stations






























Interactive Weather Map New forecast layout! Learn more

10-Day Weather Forecast

Advertisements
Track Severe Weather on mobile